createdAt,value
2022-11-29T00:01:12.177Z,100150.72
2022-11-29T00:03:40.002Z,100151.56
2022-11-29T00:06:09.495Z,100147.03
2022-11-29T00:08:38.077Z,100144.38
2022-11-29T00:11:09.309Z,100140.88
2022-11-29T00:13:37.170Z,100144.38
2022-11-29T00:16:06.344Z,100149.88
2022-11-29T00:18:34.694Z,100136.53
2022-11-29T00:21:06.776Z,100143.72
2022-11-29T00:23:34.544Z,100143.63
2022-11-29T00:26:05.150Z,100137.59
2022-11-29T00:28:35.472Z,100138.53
2022-11-29T00:31:14.878Z,100145.53
2022-11-29T00:33:42.876Z,100141.06
2022-11-29T00:36:10.805Z,100140.16
2022-11-29T00:38:39.083Z,100143.63
2022-11-29T00:41:07.221Z,100140.16
2022-11-29T00:43:36.797Z,100144.59
2022-11-29T00:46:05.388Z,100142.78
2022-11-29T00:48:35.073Z,100145.44
2022-11-29T00:51:03.119Z,100148.19
2022-11-29T00:53:30.983Z,100150.91
2022-11-29T00:55:58.819Z,100148.28
2022-11-29T00:58:26.689Z,100145.63
2022-11-29T01:00:56.133Z,100149.22
2022-11-29T01:03:24.731Z,100154.41
2022-11-29T01:05:52.987Z,100156.13
2022-11-29T01:08:20.677Z,100157.03
2022-11-29T01:10:48.365Z,100163.31
2022-11-29T01:13:16.079Z,100160.66
2022-11-29T01:15:43.809Z,100159.81
2022-11-29T01:18:12.937Z,100159.81
2022-11-29T01:20:40.642Z,100166.03
2022-11-29T01:23:08.327Z,100166.03
2022-11-29T01:25:36.044Z,100163.41
2022-11-29T01:28:03.808Z,100165.09
2022-11-29T01:30:31.631Z,100168.50
2022-11-29T01:32:59.342Z,100172.72
2022-11-29T01:35:28.363Z,100172.63
2022-11-29T01:37:56.039Z,100172.72
2022-11-29T01:40:23.751Z,100171.06
2022-11-29T01:42:51.407Z,100169.25
2022-11-29T01:45:24.823Z,100168.41
2022-11-29T01:47:56.268Z,100174.53
2022-11-29T01:50:24.207Z,100171.06
2022-11-29T01:52:53.626Z,100174.53
2022-11-29T01:55:21.666Z,100179.00
2022-11-29T01:57:50.021Z,100183.31
2022-11-29T02:00:20.823Z,100167.44
2022-11-29T02:02:52.929Z,100176.34
2022-11-29T02:05:21.666Z,100175.47
2022-11-29T02:07:53.087Z,100171.16
2022-11-29T02:10:27.512Z,100174.72
2022-11-29T02:13:01.910Z,100177.28
2022-11-29T02:15:37.731Z,100174.63
2022-11-29T02:18:10.842Z,100172.81
2022-11-29T02:21:07.264Z,100184.38
2022-11-29T02:24:11.480Z,100180.97
2022-11-29T02:27:03.629Z,100177.38
2022-11-29T02:29:50.383Z,100183.50
2022-11-29T02:32:55.238Z,100176.53
2022-11-29T02:35:43.365Z,100173.88
2022-11-29T02:38:26.346Z,100173.03
2022-11-29T02:41:06.262Z,100175.78
2022-11-29T02:43:52.666Z,100177.38
2022-11-29T02:46:40.536Z,100174.72
2022-11-29T02:49:16.922Z,100176.63
2022-11-29T02:51:53.349Z,100176.63
2022-11-29T02:54:27.514Z,100176.63
2022-11-29T02:57:00.498Z,100178.34
2022-11-29T02:59:38.238Z,100180.09
2022-11-29T03:02:18.927Z,100177.47
2022-11-29T03:04:53.728Z,100177.47
2022-11-29T03:07:26.611Z,100188.91
2022-11-29T03:09:59.352Z,100190.59
2022-11-29T03:12:34.897Z,100194.22
2022-11-29T03:15:12.119Z,100194.22
2022-11-29T03:17:56.509Z,100196.72
2022-11-29T03:20:36.560Z,100203.06
2022-11-29T03:23:20.069Z,100200.44
2022-11-29T03:25:55.998Z,100206.69
2022-11-29T03:28:28.332Z,100203.16
2022-11-29T03:31:04.438Z,100199.91
2022-11-29T03:33:42.608Z,100200.00
2022-11-29T03:36:17.140Z,100206.34
2022-11-29T03:38:47.128Z,100202.81
2022-11-29T03:41:21.502Z,100209.91
2022-11-29T03:44:01.436Z,100213.41
2022-11-29T03:46:36.026Z,100208.25
2022-11-29T03:49:08.500Z,100217.00
2022-11-29T03:51:50.877Z,100222.31
2022-11-29T03:54:25.332Z,100222.31
2022-11-29T03:56:53.781Z,100225.03
2022-11-29T03:59:37.217Z,100223.34
2022-11-29T04:02:34.671Z,100214.47
2022-11-29T04:05:26.360Z,100223.34
2022-11-29T04:08:39.002Z,100215.44
2022-11-29T04:11:54.747Z,100217.09
2022-11-29T04:14:44.013Z,100218.69
2022-11-29T04:17:40.939Z,100218.59
2022-11-29T04:20:49.683Z,100218.59
2022-11-29T04:23:59.965Z,100224.84
2022-11-29T04:26:54.101Z,100223.06
2022-11-29T04:29:56.345Z,100228.25
2022-11-29T04:32:52.311Z,100231.81
2022-11-29T04:35:34.962Z,100236.38
2022-11-29T04:38:30.834Z,100241.66
2022-11-29T04:41:14.870Z,100236.47
2022-11-29T04:43:55.517Z,100238.56
2022-11-29T04:46:56.701Z,100247.44
2022-11-29T04:49:56.044Z,100243.00
2022-11-29T04:52:44.151Z,100244.88
2022-11-29T04:55:29.448Z,100244.13
2022-11-29T04:58:10.317Z,100249.53
2022-11-29T05:00:46.571Z,100249.41
2022-11-29T05:03:22.091Z,100249.41
2022-11-29T05:05:58.476Z,100248.50
2022-11-29T05:08:34.286Z,100255.59
2022-11-29T05:11:11.618Z,100260.88
2022-11-29T05:13:52.140Z,100272.28
2022-11-29T05:16:47.043Z,100272.28
2022-11-29T05:19:46.897Z,100279.25
2022-11-29T05:22:25.720Z,100283.53
2022-11-29T05:25:01.708Z,100279.91
2022-11-29T05:27:43.359Z,100279.91
2022-11-29T05:30:16.803Z,100290.41
2022-11-29T05:32:56.302Z,100286.19
2022-11-29T05:35:50.275Z,100289.66
2022-11-29T05:38:34.581Z,100289.66
2022-11-29T05:41:16.333Z,100296.66
2022-11-29T05:43:57.934Z,100289.66
2022-11-29T05:46:33.301Z,100290.72
2022-11-29T05:49:14.747Z,100300.31
2022-11-29T05:51:51.489Z,100302.97
2022-11-29T05:54:28.580Z,100295.88
2022-11-29T05:57:07.326Z,100300.25
2022-11-29T05:59:39.284Z,100306.47
2022-11-29T06:02:18.921Z,100312.63
2022-11-29T06:04:58.547Z,100307.41
2022-11-29T06:07:31.692Z,100320.72
2022-11-29T06:10:04.015Z,100320.72
2022-11-29T06:12:36.125Z,100323.59
2022-11-29T06:15:25.400Z,100327.16
2022-11-29T06:18:06.149Z,100328.88
2022-11-29T06:20:44.533Z,100335.00
2022-11-29T06:23:28.991Z,100334.25
2022-11-29T06:26:09.785Z,100338.69
2022-11-29T06:28:49.597Z,100344.91
2022-11-29T06:31:22.734Z,100344.25
2022-11-29T06:33:59.919Z,100349.66
2022-11-29T06:36:33.165Z,100353.16
2022-11-29T06:39:01.225Z,100345.31
2022-11-29T06:41:29.515Z,100353.31
2022-11-29T06:43:57.789Z,100347.94
2022-11-29T06:46:38.934Z,100348.91
2022-11-29T06:49:14.027Z,100358.53
2022-11-29T06:51:50.164Z,100357.69
2022-11-29T06:54:33.207Z,100362.88
2022-11-29T06:57:11.394Z,100362.88
2022-11-29T06:59:51.634Z,100366.44
2022-11-29T07:02:39.315Z,100368.16
2022-11-29T07:05:16.899Z,100373.63
2022-11-29T07:07:47.009Z,100384.28
2022-11-29T07:10:18.141Z,100380.09
2022-11-29T07:12:47.292Z,100376.56
2022-11-29T07:15:17.494Z,100376.56
2022-11-29T07:18:00.888Z,100378.34
2022-11-29T07:20:39.683Z,100381.72
2022-11-29T07:23:14.328Z,100386.94
2022-11-29T07:25:54.160Z,100388.66
2022-11-29T07:28:34.579Z,100388.38
2022-11-29T07:31:09.771Z,100383.81
2022-11-29T07:33:48.248Z,100396.00
2022-11-29T07:36:24.412Z,100395.16
2022-11-29T07:39:04.235Z,100389.78
2022-11-29T07:41:40.741Z,100388.06
2022-11-29T07:44:18.019Z,100397.81
2022-11-29T07:46:45.971Z,100400.44
2022-11-29T07:49:13.757Z,100406.31
2022-11-29T07:51:43.122Z,100399.22
2022-11-29T07:54:14.225Z,100402.53
2022-11-29T07:56:41.966Z,100404.13
2022-11-29T07:59:10.965Z,100404.88
2022-11-29T08:01:38.701Z,100399.50
2022-11-29T08:04:06.978Z,100399.59
2022-11-29T08:06:34.942Z,100400.56
2022-11-29T08:09:05.464Z,100401.41
2022-11-29T08:11:33.270Z,100409.25
2022-11-29T08:14:02.336Z,100404.72
2022-11-29T08:16:30.186Z,100408.97
2022-11-29T08:18:58.021Z,100414.25
2022-11-29T08:21:25.828Z,100414.91
2022-11-29T08:23:54.173Z,100420.09
2022-11-29T08:26:26.906Z,100421.81
2022-11-29T08:28:58.920Z,100419.91
2022-11-29T08:31:26.694Z,100416.22
2022-11-29T08:33:54.464Z,100423.00
2022-11-29T08:36:22.614Z,100430.03
2022-11-29T08:38:54.174Z,100438.72
2022-11-29T08:41:28.485Z,100428.88
2022-11-29T08:43:56.635Z,100435.84
2022-11-29T08:46:44.663Z,100438.41
2022-11-29T08:49:12.455Z,100440.88
2022-11-29T08:51:40.245Z,100439.91
2022-11-29T08:54:06.996Z,100437.19
2022-11-29T08:59:25.729Z,100442.09
2022-11-29T09:01:53.480Z,100453.44
2022-11-29T09:04:21.248Z,100442.66
2022-11-29T09:06:49.711Z,100449.47
2022-11-29T09:09:18.136Z,100451.81
2022-11-29T09:11:49.585Z,100451.63
2022-11-29T09:14:18.157Z,100456.94
2022-11-29T09:16:45.992Z,100466.56
2022-11-29T09:19:15.432Z,100462.84
2022-11-29T09:21:43.214Z,100464.66
2022-11-29T09:24:10.966Z,100463.59
2022-11-29T09:26:40.839Z,100472.31
2022-11-29T09:29:10.240Z,100474.00
2022-11-29T09:31:38.038Z,100474.78
2022-11-29T09:34:05.773Z,100470.22
2022-11-29T09:36:33.749Z,100476.19
2022-11-29T09:39:03.258Z,100486.56
2022-11-29T09:41:48.527Z,100485.63
2022-11-29T09:44:23.370Z,100496.75
2022-11-29T09:47:02.358Z,100500.06
2022-11-29T09:49:51.984Z,100489.38
2022-11-29T09:52:29.186Z,100492.69
2022-11-29T09:55:07.339Z,100494.19
2022-11-29T09:57:35.504Z,100492.31
2022-11-29T10:00:08.392Z,100495.59
2022-11-29T10:02:39.380Z,100495.47
2022-11-29T10:05:12.356Z,100495.38
2022-11-29T10:07:44.014Z,100500.50
2022-11-29T10:10:19.780Z,100502.19
2022-11-29T10:12:53.504Z,100501.34
2022-11-29T10:15:27.395Z,100505.69
2022-11-29T10:18:00.051Z,100500.28
2022-11-29T10:20:35.371Z,100496.78
2022-11-29T10:23:17.016Z,100499.25
2022-11-29T10:25:47.856Z,100495.00
2022-11-29T10:28:18.687Z,100500.09
2022-11-29T10:30:48.904Z,100497.47
2022-11-29T10:33:21.394Z,100488.66
2022-11-29T10:35:52.195Z,100499.25
2022-11-29T10:38:30.931Z,100490.91
2022-11-29T10:41:06.828Z,100489.00
2022-11-29T10:43:34.970Z,100496.75
2022-11-29T10:46:05.439Z,100494.94
2022-11-29T10:48:35.361Z,100498.47
2022-11-29T10:51:03.574Z,100496.75
2022-11-29T10:53:37.203Z,100494.19
2022-11-29T10:56:09.505Z,100503.75
2022-11-29T10:58:40.903Z,100498.56
2022-11-29T11:01:14.454Z,100499.31
2022-11-29T11:03:43.996Z,100497.59
2022-11-29T11:06:14.726Z,100505.44
2022-11-29T11:08:45.103Z,100497.41
2022-11-29T11:11:13.432Z,100499.22
2022-11-29T11:13:42.459Z,100501.75
2022-11-29T11:16:19.419Z,100491.25
2022-11-29T11:18:48.743Z,100499.00
2022-11-29T11:21:19.038Z,100497.22
2022-11-29T11:23:54.155Z,100492.75
2022-11-29T11:26:22.533Z,100490.94
2022-11-29T11:28:54.267Z,100497.00
2022-11-29T11:31:34.148Z,100497.84
2022-11-29T11:34:25.383Z,100494.25
2022-11-29T11:36:53.712Z,100499.34
2022-11-29T11:39:24.125Z,100497.44
2022-11-29T11:42:10.957Z,100506.25
2022-11-29T11:44:49.376Z,100504.63
2022-11-29T11:47:22.373Z,100508.03
2022-11-29T11:49:54.668Z,100507.94
2022-11-29T11:52:24.942Z,100513.16
2022-11-29T11:54:56.260Z,100514.72
2022-11-29T11:57:25.462Z,100514.63
2022-11-29T11:59:55.081Z,100504.78
2022-11-29T12:02:29.746Z,100511.69
2022-11-29T12:05:01.695Z,100511.47
2022-11-29T12:08:06.943Z,100512.13
2022-11-29T12:10:28.477Z,100509.25
2022-11-29T12:12:58.273Z,100510.00
2022-11-29T12:15:29.735Z,100510.84
2022-11-29T12:18:04.500Z,100512.47
2022-11-29T12:20:35.073Z,100514.06
2022-11-29T12:23:26.331Z,100517.69
2022-11-29T12:25:59.117Z,100520.13
2022-11-29T12:28:30.507Z,100520.94
2022-11-29T12:31:08.455Z,100527.13
2022-11-29T12:33:47.311Z,100520.84
2022-11-29T12:36:33.423Z,100523.50
2022-11-29T12:39:23.661Z,100520.00
2022-11-29T12:41:57.270Z,100529.78
2022-11-29T12:44:37.051Z,100531.47
2022-11-29T12:47:38.559Z,100525.22
2022-11-29T12:50:22.956Z,100519.91
2022-11-29T12:53:01.915Z,100520.66
2022-11-29T12:55:42.534Z,100524.25
2022-11-29T12:58:18.198Z,100529.47
2022-11-29T13:00:54.543Z,100523.94
2022-11-29T13:03:29.921Z,100529.16
2022-11-29T13:06:09.565Z,100528.22
2022-11-29T13:08:54.702Z,100535.94
2022-11-29T13:11:26.824Z,100535.00
2022-11-29T13:14:13.828Z,100538.50
2022-11-29T13:16:56.260Z,100541.06
2022-11-29T13:19:30.695Z,100543.72
2022-11-29T13:22:11.686Z,100540.84
2022-11-29T13:24:44.532Z,100540.63
2022-11-29T13:27:19.903Z,100544.88
2022-11-29T13:29:48.822Z,100544.03
2022-11-29T13:32:31.196Z,100544.78
2022-11-29T13:35:04.359Z,100541.91
2022-11-29T13:37:40.081Z,100543.72
2022-11-29T13:40:24.737Z,100544.47
2022-11-29T13:43:02.845Z,100540.03
2022-11-29T13:45:38.614Z,100542.56
2022-11-29T13:48:33.950Z,100545.22
2022-11-29T13:51:27.092Z,100543.53
2022-11-29T13:53:58.572Z,100544.59
2022-11-29T13:56:29.786Z,100543.09
2022-11-29T13:58:58.962Z,100548.50
2022-11-29T14:01:27.558Z,100545.00
2022-11-29T14:04:08.373Z,100541.28
2022-11-29T14:06:38.219Z,100552.13
2022-11-29T14:09:29.260Z,100555.63
2022-11-29T14:12:02.846Z,100557.31
2022-11-29T14:14:37.206Z,100557.22
2022-11-29T14:17:08.061Z,100564.53
2022-11-29T14:19:37.515Z,100563.69
2022-11-29T14:22:21.841Z,100569.00
2022-11-29T14:25:49.137Z,100570.91
2022-11-29T14:28:31.218Z,100571.53
2022-11-29T14:31:01.450Z,100571.66
2022-11-29T14:33:51.655Z,100572.63
2022-11-29T14:36:47.438Z,100577.06
2022-11-29T14:39:43.144Z,100570.16
2022-11-29T14:42:19.266Z,100580.78
2022-11-29T14:44:52.018Z,100575.47
2022-11-29T14:47:32.279Z,100584.34
2022-11-29T14:50:04.026Z,100587.88
2022-11-29T14:52:34.643Z,100588.72
2022-11-29T14:55:06.703Z,100592.22
2022-11-29T14:58:15.756Z,100594.13
2022-11-29T15:01:10.584Z,100593.38
2022-11-29T15:03:49.486Z,100597.75
2022-11-29T15:06:27.010Z,100597.53
2022-11-29T15:09:03.901Z,100598.41
2022-11-29T15:11:41.230Z,100602.00
2022-11-29T15:14:29.951Z,100600.28
2022-11-29T15:17:14.033Z,100602.09
2022-11-29T15:20:10.135Z,100604.75
2022-11-29T15:22:47.832Z,100613.56
2022-11-29T15:25:18.438Z,100604.75
2022-11-29T15:27:54.303Z,100605.59
2022-11-29T15:30:30.275Z,100605.81
2022-11-29T15:32:59.612Z,100606.66
2022-11-29T15:35:28.141Z,100610.28
2022-11-29T15:37:56.362Z,100618.34
2022-11-29T15:40:26.409Z,100617.50
2022-11-29T15:42:57.982Z,100621.91
2022-11-29T15:45:34.807Z,100629.88
2022-11-29T15:48:14.080Z,100628.94
2022-11-29T15:50:47.111Z,100625.31
2022-11-29T15:53:21.192Z,100626.28
2022-11-29T15:55:51.552Z,100634.34
2022-11-29T15:58:20.956Z,100637.97
2022-11-29T16:00:51.659Z,100639.88
2022-11-29T16:03:25.819Z,100643.56
2022-11-29T16:06:05.322Z,100633.81
2022-11-29T16:08:38.511Z,100644.53
2022-11-29T16:11:07.877Z,100637.63
2022-11-29T16:13:38.233Z,100636.00
2022-11-29T16:16:12.184Z,100643.13
2022-11-29T16:18:42.164Z,100639.63
2022-11-29T16:21:24.735Z,100644.06
2022-11-29T16:23:52.595Z,100646.84
2022-11-29T16:26:24.101Z,100638.75
2022-11-29T16:28:53.838Z,100644.94
2022-11-29T16:31:25.602Z,100642.28
2022-11-29T16:33:53.762Z,100649.47
2022-11-29T16:36:24.678Z,100647.03
2022-11-29T16:38:55.018Z,100655.81
2022-11-29T16:41:26.132Z,100655.06
2022-11-29T16:43:56.202Z,100654.22
2022-11-29T16:46:37.144Z,100654.22
2022-11-29T16:49:35.462Z,100660.50
2022-11-29T16:52:03.982Z,100663.91
2022-11-29T16:54:34.284Z,100660.19
2022-11-29T16:57:06.485Z,100663.69
2022-11-29T16:59:35.342Z,100659.22
2022-11-29T17:02:04.675Z,100657.53
2022-11-29T17:04:32.452Z,100662.00
2022-11-29T17:07:00.635Z,100658.38
2022-11-29T17:09:30.687Z,100663.03
2022-11-29T17:12:00.961Z,100667.50
2022-11-29T17:14:29.319Z,100661.25
2022-11-29T17:16:57.163Z,100669.97
2022-11-29T17:19:26.408Z,100668.34
2022-11-29T17:21:54.076Z,100668.47
2022-11-29T17:24:23.604Z,100665.16
2022-11-29T17:26:51.580Z,100672.34
2022-11-29T17:29:19.631Z,100677.00
2022-11-29T17:31:50.451Z,100675.09
2022-11-29T17:34:18.663Z,100671.59
2022-11-29T17:36:47.788Z,100675.28
2022-11-29T17:39:19.463Z,100677.19
2022-11-29T17:41:47.607Z,100672.09
2022-11-29T17:44:15.470Z,100681.84
2022-11-29T17:46:43.380Z,100683.75
2022-11-29T17:49:11.566Z,100684.59
2022-11-29T17:51:56.467Z,100686.50
2022-11-29T17:54:25.800Z,100688.31
2022-11-29T17:56:53.676Z,100688.31
2022-11-29T17:59:21.449Z,100695.28
2022-11-29T18:01:49.320Z,100690.84
2022-11-29T18:04:17.145Z,100702.31
2022-11-29T18:06:49.461Z,100697.84
2022-11-29T18:09:18.669Z,100704.00
2022-11-29T18:11:50.148Z,100710.16
2022-11-29T18:14:20.460Z,100701.34
2022-11-29T18:16:48.293Z,100701.34
2022-11-29T18:19:18.829Z,100710.34
2022-11-29T18:21:47.309Z,100706.88
2022-11-29T18:24:15.183Z,100706.00
2022-11-29T18:26:43.527Z,100715.84
2022-11-29T18:29:12.694Z,100712.34
2022-11-29T18:31:42.667Z,100712.56
2022-11-29T18:34:11.796Z,100710.75
2022-11-29T18:36:43.434Z,100708.94
2022-11-29T18:39:15.070Z,100713.56
2022-11-29T18:41:44.756Z,100723.25
2022-11-29T18:44:15.447Z,100723.34
2022-11-29T18:46:44.523Z,100719.09
2022-11-29T18:49:14.766Z,100725.31
2022-11-29T18:51:44.789Z,100722.88
2022-11-29T18:54:14.101Z,100722.97
2022-11-29T18:56:42.538Z,100723.06
2022-11-29T18:59:12.137Z,100729.31
2022-11-29T19:01:42.728Z,100731.22
2022-11-29T19:04:12.937Z,100726.94
2022-11-29T19:06:41.414Z,100736.78
2022-11-29T19:09:13.772Z,100741.31
2022-11-29T19:11:41.749Z,100742.38
2022-11-29T19:14:12.479Z,100734.59
2022-11-29T19:16:42.985Z,100734.72
2022-11-29T19:19:11.005Z,100734.81
2022-11-29T19:21:39.686Z,100742.94
2022-11-29T19:24:14.093Z,100740.47
2022-11-29T19:26:44.207Z,100749.38
2022-11-29T19:29:12.626Z,100741.41
2022-11-29T19:31:42.557Z,100746.91
2022-11-29T19:34:10.473Z,100746.03
2022-11-29T19:36:42.844Z,100754.00
2022-11-29T19:39:12.136Z,100755.03
2022-11-29T19:41:40.001Z,100756.84
2022-11-29T19:44:09.464Z,100752.38
2022-11-29T19:46:38.877Z,100755.03
2022-11-29T19:49:09.331Z,100748.91
2022-11-29T19:51:37.667Z,100753.34
2022-11-29T19:54:07.569Z,100751.53
2022-11-29T19:56:36.264Z,100755.03
2022-11-29T19:59:04.014Z,100755.13
2022-11-29T20:01:40.404Z,100758.72
2022-11-29T20:04:11.478Z,100761.47
2022-11-29T20:06:39.587Z,100757.13
2022-11-29T20:09:07.568Z,100758.91
2022-11-29T20:11:35.396Z,100760.78
2022-11-29T20:14:04.419Z,100763.56
2022-11-29T20:16:32.647Z,100761.09
2022-11-29T20:19:01.752Z,100765.63
2022-11-29T20:21:33.713Z,100764.00
2022-11-29T20:24:03.083Z,100769.41
2022-11-29T20:26:32.102Z,100770.53
2022-11-29T20:29:00.228Z,100773.25
2022-11-29T20:31:28.373Z,100770.69
2022-11-29T20:33:57.598Z,100770.69
2022-11-29T20:36:38.728Z,100775.34
2022-11-29T20:39:18.390Z,100775.59
2022-11-29T20:41:56.285Z,100779.38
2022-11-29T20:44:37.353Z,100778.44
2022-11-29T20:47:14.380Z,100781.25
2022-11-29T20:49:42.522Z,100785.78
2022-11-29T20:52:16.497Z,100783.34
2022-11-29T20:54:44.259Z,100785.09
2022-11-29T20:57:12.170Z,100787.75
2022-11-29T20:59:39.907Z,100786.91
2022-11-29T21:02:07.698Z,100786.06
2022-11-29T21:04:35.435Z,100791.50
2022-11-29T21:07:03.313Z,100790.66
2022-11-29T21:12:14.930Z,100781.00
2022-11-29T21:14:44.215Z,100783.66
2022-11-29T21:17:12.572Z,100783.78
2022-11-29T21:19:41.044Z,100789.41
2022-11-29T21:22:18.167Z,100792.16
2022-11-29T21:24:57.512Z,100786.09
2022-11-29T21:27:29.860Z,100786.25
2022-11-29T21:29:58.051Z,100789.09
2022-11-29T21:32:27.831Z,100787.44
2022-11-29T21:34:55.647Z,100787.72
2022-11-29T21:37:27.525Z,100786.97
2022-11-29T21:39:57.208Z,100800.38
2022-11-29T21:42:25.032Z,100795.16
2022-11-29T21:44:52.855Z,100792.69
2022-11-29T21:47:20.701Z,100790.22
2022-11-29T21:49:48.404Z,100793.03
2022-11-29T21:52:21.960Z,100794.97
2022-11-29T21:54:50.518Z,100798.59
2022-11-29T21:57:19.582Z,100803.09
2022-11-29T21:59:47.303Z,100795.31
2022-11-29T22:02:15.203Z,100797.19
2022-11-29T22:04:43.139Z,100806.09
2022-11-29T22:07:10.849Z,100801.72
2022-11-29T22:09:38.612Z,100807.97
2022-11-29T22:12:31.974Z,100799.19
2022-11-29T22:14:55.820Z,100801.84
2022-11-29T22:17:23.875Z,100801.84
2022-11-29T22:19:51.568Z,100803.53
2022-11-29T22:22:19.326Z,100804.38
2022-11-29T22:24:47.315Z,100807.97
2022-11-29T22:27:17.671Z,100806.25
2022-11-29T22:29:45.601Z,100805.47
2022-11-29T22:32:14.770Z,100809.84
2022-11-29T22:34:42.497Z,100808.97
2022-11-29T22:37:10.162Z,100804.56
2022-11-29T22:39:37.944Z,100805.41
2022-11-29T22:42:05.719Z,100799.19
2022-11-29T22:44:33.491Z,100804.22
2022-11-29T22:47:01.204Z,100799.63
2022-11-29T22:49:33.073Z,100806.50
2022-11-29T22:52:00.834Z,100806.50
2022-11-29T22:54:28.552Z,100805.69
2022-11-29T22:56:56.257Z,100807.38
2022-11-29T22:59:23.960Z,100809.84
2022-11-29T23:01:51.672Z,100808.81
2022-11-29T23:04:19.557Z,100808.81
2022-11-29T23:06:48.673Z,100804.38
2022-11-29T23:09:21.077Z,100803.53
2022-11-29T23:11:52.078Z,100805.13
2022-11-29T23:14:20.171Z,100805.13
2022-11-29T23:16:48.166Z,100804.22
2022-11-29T23:19:16.354Z,100811.31
2022-11-29T23:21:45.818Z,100811.19
2022-11-29T23:24:15.375Z,100812.06
2022-11-29T23:26:45.919Z,100811.19
2022-11-29T23:29:15.177Z,100810.28
2022-11-29T23:31:43.720Z,100815.66
2022-11-29T23:34:11.582Z,100807.72
2022-11-29T23:36:39.354Z,100812.22
2022-11-29T23:39:07.591Z,100811.19
2022-11-29T23:41:36.750Z,100804.97
2022-11-29T23:44:04.667Z,100803.25
2022-11-29T23:46:32.336Z,100807.72
2022-11-29T23:49:00.081Z,100807.72
2022-11-29T23:51:27.955Z,100805.13
2022-11-29T23:53:55.766Z,100805.22
2022-11-29T23:56:23.775Z,100809.66
2022-11-29T23:58:52.830Z,100801.72
